Saturday, November 18, 2017, 11:51 PM EST
Back to Local

KSYR, Syracuse Hancock International Airport

Location: Syracuse, NY, United States Lat: 43.117
Local Time: 11:51 PM EST ( 4:51 GMT) Lon: -76.1
Time Zone: US/Eastern Elev: 410 ft

Show me the last for .
Show Decoded

2017-11-18 22:54 METAR KSYR 190354Z 11009G17KT 10SM -RA FEW050 BKN085 OVC110 09/06 A2917 RMK AO2
                 SLP878 P0001 T00890061 =
2017-11-18 21:54 METAR KSYR 190254Z 16007KT 10SM -RA FEW025 BKN045 OVC055 08/06 A2925 RMK AO2
                 SLP902 P0000 60012 T00780056 56046 =
2017-11-18 20:54 METAR KSYR 190154Z VRB05KT 10SM -RA FEW022 OVC045 07/05 A2928 RMK AO2 SLP914
                 P0001 T00670050 =
2017-11-18 20:46 METAR KSYR 190146Z VRB05KT 10SM -RA SCT022 OVC045 06/05 A2929 RMK AO2 P0001
                 T00610050 =
2017-11-18 20:29 METAR KSYR 190129Z 07005KT 10SM -RA BKN022 OVC045 06/05 A2930 RMK AO2 P0001
                 T00560050 =
2017-11-18 19:54 METAR KSYR 190054Z 09006KT 10SM -RA BKN018 BKN028 OVC035 06/05 A2933 RMK AO2
                 SLP932 P0011 T00560050 =
2017-11-18 18:54 METAR KSYR 182354Z 09008KT 4SM RA BR BKN018 OVC028 06/05 A2938 RMK AO2 SLP950
                 P0012 60020 T00560050 10083 20056 56027 =
2017-11-18 17:54 METAR KSYR 182254Z 12009KT 5SM RA BR FEW019 OVC028 06/05 A2940 RMK AO2 RAB16
                 SLP957 P0008 T00560050 =
2017-11-18 16:54 METAR KSYR 182154Z 14009KT 10SM OVC029 07/03 A2944 RMK AO2 SLP968 T00670033 =
2017-11-18 15:54 METAR KSYR 182054Z 17009KT 10SM FEW025 BKN028 OVC034 07/03 A2946 RMK AO2 SLP977
                 T00720033 58026 =
2017-11-18 14:54 METAR KSYR 181954Z 17010KT 10SM BKN029 OVC050 08/02 A2949 RMK AO2 SLP987
                 T00780022 =
2017-11-18 14:05 METAR KSYR 181905Z 19007KT 10SM BKN029 OVC050 08/01 A2952 =
2017-11-18 13:54 METAR KSYR 181854Z 19008KT 10SM BKN030 OVC050 08/01 A2952 RMK AO2 SLP997
                 T00780006 =
2017-11-18 12:54 METAR KSYR 181754Z 18011KT 10SM BKN033 OVC060 07/M02 A2954 RMK AO2 SLP004 60000
                 T00721017 10072 21017 58030 =
2017-11-18 11:54 METAR KSYR 181654Z 17010G19KT 10SM SCT034 BKN060 OVC080 07/M03 A2959 RMK AO2
                 SLP019 T00671028 =
2017-11-18 10:54 METAR KSYR 181554Z 09006KT 10SM BKN060 OVC100 04/M03 A2964 RMK AO2 SLP039
                 T00391028 =
2017-11-18 09:54 METAR KSYR 181454Z 09007KT 10SM BKN070 OVC100 03/M02 A2963 RMK AO2 RAE14 SLP035
                 P0000 60000 T00281022 58035 =
2017-11-18 08:54 METAR KSYR 181354Z 05004KT 10SM -RA SCT065 BKN080 OVC100 01/M03 A2970 RMK AO2
                 RAB42 SLP059 P0000 T00061033 =
2017-11-18 07:54 METAR KSYR 181254Z 05005KT 10SM BKN120 OVC180 M01/M05 A2973 RMK AO2 SLP069
                 T10061050 =
2017-11-18 06:54 METAR KSYR 181154Z 08009KT 10SM SCT140 BKN240 M02/M06 A2973 RMK AO2 SLP070 SCT V
                 BKN T10171056 11017 21044 58035 =
2017-11-18 05:54 METAR KSYR 181054Z 08007KT 10SM SCT140 BKN200 M02/M06 A2977 RMK AO2 SLP083
                 T10221056 =
2017-11-18 04:54 METAR KSYR 180954Z 07007KT 10SM FEW110 BKN200 M03/M06 A2981 RMK AO2 SLP095
                 T10331061 =
2017-11-18 03:54 METAR KSYR 180854Z 08008KT 10SM FEW110 BKN180 M03/M06 A2984 RMK AO2 SLP105
                 T10331056 56040 =
2017-11-18 02:54 METAR KSYR 180754Z 08007KT 10SM BKN110 BKN120 M04/M06 A2988 RMK AO2 SLP120
                 T10391061 =
2017-11-18 01:54 METAR KSYR 180654Z 08009KT 10SM SCT110 BKN250 M03/M06 A2990 RMK AO2 SLP127 SCT V
                 BKN T10331056 =
2017-11-18 00:54 METAR KSYR 180554Z 09005KT 10SM FEW110 SCT250 M04/M06 A2996 RMK AO2 SLP146
                 T10391061 11011 21044 58027 =
2017-11-17 23:54 METAR KSYR 180454Z 09006KT 10SM FEW120 SCT250 M04/M06 A2999 RMK AO2 SLP158
                 T10391061 400281044 =

Support USWX by starting your Amazon purchase here.